sensor_id;sensor_type;location;lat;lon;timestamp;P1;durP1;ratioP1;P2;durP2;ratioP2
17201;SDS011;8717;53.588;10.176;2023-04-01T00:00:23;5.40;;;4.13;;
17201;SDS011;8717;53.588;10.176;2023-04-01T00:02:51;8.63;;;4.17;;
17201;SDS011;8717;53.588;10.176;2023-04-01T00:05:19;6.50;;;4.23;;
17201;SDS011;8717;53.588;10.176;2023-04-01T00:07:46;7.73;;;4.77;;
17201;SDS011;8717;53.588;10.176;2023-04-01T00:10:13;8.33;;;4.60;;
17201;SDS011;8717;53.588;10.176;2023-04-01T00:12:40;10.30;;;4.57;;
17201;SDS011;8717;53.588;10.176;2023-04-01T00:15:08;7.20;;;4.70;;
17201;SDS011;8717;53.588;10.176;2023-04-01T00:17:36;7.87;;;4.77;;
17201;SDS011;8717;53.588;10.176;2023-04-01T00:20:04;9.03;;;5.57;;
17201;SDS011;8717;53.588;10.176;2023-04-01T00:22:34;8.07;;;4.57;;
17201;SDS011;8717;53.588;10.176;2023-04-01T00:25:01;9.63;;;4.70;;
17201;SDS011;8717;53.588;10.176;2023-04-01T00:27:28;6.83;;;4.70;;
17201;SDS011;8717;53.588;10.176;2023-04-01T00:29:55;8.77;;;4.90;;
17201;SDS011;8717;53.588;10.176;2023-04-01T00:32:21;9.53;;;5.47;;
17201;SDS011;8717;53.588;10.176;2023-04-01T00:34:49;7.60;;;5.33;;
17201;SDS011;8717;53.588;10.176;2023-04-01T00:37:17;6.30;;;4.33;;
17201;SDS011;8717;53.588;10.176;2023-04-01T00:39:45;8.57;;;5.30;;
17201;SDS011;8717;53.588;10.176;2023-04-01T00:42:12;9.50;;;5.00;;
17201;SDS011;8717;53.588;10.176;2023-04-01T00:44:39;10.93;;;5.53;;
17201;SDS011;8717;53.588;10.176;2023-04-01T00:47:06;8.67;;;5.50;;
17201;SDS011;8717;53.588;10.176;2023-04-01T00:49:34;7.57;;;5.20;;
17201;SDS011;8717;53.588;10.176;2023-04-01T00:52:04;7.07;;;4.73;;
17201;SDS011;8717;53.588;10.176;2023-04-01T00:54:33;7.23;;;5.17;;
17201;SDS011;8717;53.588;10.176;2023-04-01T00:57:05;9.23;;;5.30;;
17201;SDS011;8717;53.588;10.176;2023-04-01T00:59:34;9.17;;;5.80;;
17201;SDS011;8717;53.588;10.176;2023-04-01T01:02:05;7.70;;;5.23;;
17201;SDS011;8717;53.588;10.176;2023-04-01T01:04:36;8.57;;;5.73;;
17201;SDS011;8717;53.588;10.176;2023-04-01T01:07:07;7.37;;;5.27;;
17201;SDS011;8717;53.588;10.176;2023-04-01T01:09:44;8.07;;;5.03;;
17201;SDS011;8717;53.588;10.176;2023-04-01T01:12:21;9.73;;;5.70;;
17201;SDS011;8717;53.588;10.176;2023-04-01T01:14:54;9.63;;;5.47;;
17201;SDS011;8717;53.588;10.176;2023-04-01T01:17:31;7.13;;;4.93;;
17201;SDS011;8717;53.588;10.176;2023-04-01T01:20:13;7.90;;;5.40;;
17201;SDS011;8717;53.588;10.176;2023-04-01T01:23:20;8.23;;;4.83;;
17201;SDS011;8717;53.588;10.176;2023-04-01T01:26:28;8.63;;;5.57;;
17201;SDS011;8717;53.588;10.176;2023-04-01T01:29:14;9.90;;;5.20;;
17201;SDS011;8717;53.588;10.176;2023-04-01T01:31:56;7.77;;;5.07;;
17201;SDS011;8717;53.588;10.176;2023-04-01T01:34:28;12.30;;;5.47;;
17201;SDS011;8717;53.588;10.176;2023-04-01T01:37:05;8.37;;;5.30;;
17201;SDS011;8717;53.588;10.176;2023-04-01T01:39:36;9.57;;;5.20;;
17201;SDS011;8717;53.588;10.176;2023-04-01T01:42:06;8.03;;;5.43;;
17201;SDS011;8717;53.588;10.176;2023-04-01T01:44:37;7.87;;;5.60;;
17201;SDS011;8717;53.588;10.176;2023-04-01T01:47:06;9.50;;;5.77;;
17201;SDS011;8717;53.588;10.176;2023-04-01T01:49:34;11.87;;;6.10;;
17201;SDS011;8717;53.588;10.176;2023-04-01T01:52:02;9.83;;;5.63;;
17201;SDS011;8717;53.588;10.176;2023-04-01T01:54:31;7.80;;;5.67;;
17201;SDS011;8717;53.588;10.176;2023-04-01T01:56:59;9.33;;;5.77;;
17201;SDS011;8717;53.588;10.176;2023-04-01T01:59:31;10.57;;;5.77;;
17201;SDS011;8717;53.588;10.176;2023-04-01T02:02:01;9.00;;;5.77;;
17201;SDS011;8717;53.588;10.176;2023-04-01T02:04:33;9.07;;;6.13;;
17201;SDS011;8717;53.588;10.176;2023-04-01T02:07:06;9.50;;;5.87;;
17201;SDS011;8717;53.588;10.176;2023-04-01T02:09:37;7.57;;;5.47;;
17201;SDS011;8717;53.588;10.176;2023-04-01T02:12:05;9.33;;;6.27;;
17201;SDS011;8717;53.588;10.176;2023-04-01T02:14:39;7.87;;;5.23;;
17201;SDS011;8717;53.588;10.176;2023-04-01T02:17:10;9.13;;;5.53;;
17201;SDS011;8717;53.588;10.176;2023-04-01T02:19:42;12.90;;;6.20;;
17201;SDS011;8717;53.588;10.176;2023-04-01T02:22:16;8.33;;;5.80;;
17201;SDS011;8717;53.588;10.176;2023-04-01T02:24:46;11.37;;;5.43;;
17201;SDS011;8717;53.588;10.176;2023-04-01T02:27:15;7.83;;;5.23;;
17201;SDS011;8717;53.588;10.176;2023-04-01T02:29:42;9.03;;;5.67;;
17201;SDS011;8717;53.588;10.176;2023-04-01T02:32:09;8.80;;;5.47;;
17201;SDS011;8717;53.588;10.176;2023-04-01T02:34:38;9.10;;;5.67;;
17201;SDS011;8717;53.588;10.176;2023-04-01T02:37:05;7.30;;;5.17;;
17201;SDS011;8717;53.588;10.176;2023-04-01T02:39:33;9.37;;;5.57;;
17201;SDS011;8717;53.588;10.176;2023-04-01T02:42:00;8.77;;;5.07;;
17201;SDS011;8717;53.588;10.176;2023-04-01T02:44:28;11.60;;;5.70;;
17201;SDS011;8717;53.588;10.176;2023-04-01T02:46:55;8.40;;;5.93;;
17201;SDS011;8717;53.588;10.176;2023-04-01T02:49:22;7.83;;;5.20;;
17201;SDS011;8717;53.588;10.176;2023-04-01T02:51:49;8.47;;;5.77;;
17201;SDS011;8717;53.588;10.176;2023-04-01T02:54:17;9.67;;;5.23;;
17201;SDS011;8717;53.588;10.176;2023-04-01T02:56:45;9.50;;;5.80;;
17201;SDS011;8717;53.588;10.176;2023-04-01T02:59:12;9.73;;;6.00;;
17201;SDS011;8717;53.588;10.176;2023-04-01T03:01:39;9.90;;;5.43;;
17201;SDS011;8717;53.588;10.176;2023-04-01T03:04:05;9.63;;;6.00;;
17201;SDS011;8717;53.588;10.176;2023-04-01T03:06:33;11.03;;;5.93;;
17201;SDS011;8717;53.588;10.176;2023-04-01T03:08:59;7.40;;;5.83;;
17201;SDS011;8717;53.588;10.176;2023-04-01T03:11:26;12.27;;;6.40;;
17201;SDS011;8717;53.588;10.176;2023-04-01T03:13:55;10.00;;;6.20;;
17201;SDS011;8717;53.588;10.176;2023-04-01T03:16:22;8.97;;;6.00;;
17201;SDS011;8717;53.588;10.176;2023-04-01T03:18:49;10.87;;;6.30;;
17201;SDS011;8717;53.588;10.176;2023-04-01T03:21:18;10.07;;;6.63;;
17201;SDS011;8717;53.588;10.176;2023-04-01T03:23:46;15.47;;;7.00;;
17201;SDS011;8717;53.588;10.176;2023-04-01T03:26:13;11.23;;;7.20;;
17201;SDS011;8717;53.588;10.176;2023-04-01T03:28:41;12.97;;;7.47;;
17201;SDS011;8717;53.588;10.176;2023-04-01T03:31:09;10.07;;;7.20;;
17201;SDS011;8717;53.588;10.176;2023-04-01T03:33:42;10.37;;;7.37;;
17201;SDS011;8717;53.588;10.176;2023-04-01T03:36:09;10.73;;;7.37;;
17201;SDS011;8717;53.588;10.176;2023-04-01T03:38:37;9.90;;;7.40;;
17201;SDS011;8717;53.588;10.176;2023-04-01T03:41:04;11.57;;;7.70;;
17201;SDS011;8717;53.588;10.176;2023-04-01T03:43:32;10.33;;;6.93;;
17201;SDS011;8717;53.588;10.176;2023-04-01T03:45:59;10.87;;;7.17;;
17201;SDS011;8717;53.588;10.176;2023-04-01T03:48:27;9.80;;;7.37;;
17201;SDS011;8717;53.588;10.176;2023-04-01T03:50:54;11.53;;;8.10;;
17201;SDS011;8717;53.588;10.176;2023-04-01T03:53:22;9.67;;;7.57;;
17201;SDS011;8717;53.588;10.176;2023-04-01T03:55:49;8.03;;;7.10;;
17201;SDS011;8717;53.588;10.176;2023-04-01T03:58:17;10.13;;;7.77;;
17201;SDS011;8717;53.588;10.176;2023-04-01T04:00:44;8.87;;;7.63;;
17201;SDS011;8717;53.588;10.176;2023-04-01T04:03:15;11.37;;;8.10;;
17201;SDS011;8717;53.588;10.176;2023-04-01T04:05:47;8.90;;;7.63;;
17201;SDS011;8717;53.588;10.176;2023-04-01T04:08:16;11.33;;;8.07;;
17201;SDS011;8717;53.588;10.176;2023-04-01T04:10:44;10.43;;;7.57;;
17201;SDS011;8717;53.588;10.176;2023-04-01T04:13:11;9.70;;;7.70;;
17201;SDS011;8717;53.588;10.176;2023-04-01T04:15:44;11.10;;;8.27;;
17201;SDS011;8717;53.588;10.176;2023-04-01T04:18:11;11.00;;;7.90;;
17201;SDS011;8717;53.588;10.176;2023-04-01T04:20:42;10.53;;;7.57;;
17201;SDS011;8717;53.588;10.176;2023-04-01T04:23:12;11.27;;;7.57;;
17201;SDS011;8717;53.588;10.176;2023-04-01T04:25:39;8.30;;;7.20;;
17201;SDS011;8717;53.588;10.176;2023-04-01T04:28:06;9.73;;;7.00;;
17201;SDS011;8717;53.588;10.176;2023-04-01T04:30:33;9.63;;;7.33;;
17201;SDS011;8717;53.588;10.176;2023-04-01T04:33:00;10.00;;;7.00;;
17201;SDS011;8717;53.588;10.176;2023-04-01T04:35:27;10.37;;;7.43;;
17201;SDS011;8717;53.588;10.176;2023-04-01T04:37:54;8.90;;;6.83;;
17201;SDS011;8717;53.588;10.176;2023-04-01T04:40:23;10.40;;;7.10;;
17201;SDS011;8717;53.588;10.176;2023-04-01T04:42:49;7.03;;;5.93;;
17201;SDS011;8717;53.588;10.176;2023-04-01T04:45:16;9.13;;;7.10;;
17201;SDS011;8717;53.588;10.176;2023-04-01T04:47:51;7.33;;;6.00;;
17201;SDS011;8717;53.588;10.176;2023-04-01T04:50:18;8.40;;;6.53;;
17201;SDS011;8717;53.588;10.176;2023-04-01T04:52:45;8.60;;;5.90;;
17201;SDS011;8717;53.588;10.176;2023-04-01T04:55:12;7.33;;;6.57;;
17201;SDS011;8717;53.588;10.176;2023-04-01T04:57:42;7.37;;;6.20;;
17201;SDS011;8717;53.588;10.176;2023-04-01T05:00:09;7.60;;;6.23;;
17201;SDS011;8717;53.588;10.176;2023-04-01T05:02:46;7.90;;;6.03;;
17201;SDS011;8717;53.588;10.176;2023-04-01T05:05:13;8.03;;;5.80;;
17201;SDS011;8717;53.588;10.176;2023-04-01T05:07:40;8.03;;;6.03;;
17201;SDS011;8717;53.588;10.176;2023-04-01T05:10:07;7.53;;;5.80;;
17201;SDS011;8717;53.588;10.176;2023-04-01T05:12:35;3.37;;;3.03;;
17201;SDS011;8717;53.588;10.176;2023-04-01T05:15:06;1.50;;;1.40;;
17201;SDS011;8717;53.588;10.176;2023-04-01T05:17:35;1.40;;;1.30;;
17201;SDS011;8717;53.588;10.176;2023-04-01T05:20:03;1.87;;;1.00;;
17201;SDS011;8717;53.588;10.176;2023-04-01T05:22:30;2.23;;;1.20;;
17201;SDS011;8717;53.588;10.176;2023-04-01T05:24:57;2.33;;;1.40;;
17201;SDS011;8717;53.588;10.176;2023-04-01T05:27:24;2.47;;;1.33;;
17201;SDS011;8717;53.588;10.176;2023-04-01T05:29:51;1.53;;;1.17;;
17201;SDS011;8717;53.588;10.176;2023-04-01T05:32:38;1.87;;;1.10;;
17201;SDS011;8717;53.588;10.176;2023-04-01T05:35:05;1.40;;;1.20;;
17201;SDS011;8717;53.588;10.176;2023-04-01T05:37:33;1.40;;;1.20;;
17201;SDS011;8717;53.588;10.176;2023-04-01T05:40:00;1.10;;;1.00;;
17201;SDS011;8717;53.588;10.176;2023-04-01T05:42:27;1.33;;;1.00;;
17201;SDS011;8717;53.588;10.176;2023-04-01T05:44:54;1.27;;;1.17;;
17201;SDS011;8717;53.588;10.176;2023-04-01T05:47:49;1.80;;;0.90;;
17201;SDS011;8717;53.588;10.176;2023-04-01T05:50:17;1.60;;;1.10;;
17201;SDS011;8717;53.588;10.176;2023-04-01T05:52:44;1.90;;;1.30;;
17201;SDS011;8717;53.588;10.176;2023-04-01T05:55:11;1.10;;;1.00;;
17201;SDS011;8717;53.588;10.176;2023-04-01T05:57:38;2.33;;;1.60;;
17201;SDS011;8717;53.588;10.176;2023-04-01T06:00:05;1.37;;;1.27;;
17201;SDS011;8717;53.588;10.176;2023-04-01T06:02:37;2.70;;;1.30;;
17201;SDS011;8717;53.588;10.176;2023-04-01T06:05:12;2.07;;;1.20;;
17201;SDS011;8717;53.588;10.176;2023-04-01T06:07:43;2.03;;;1.53;;
17201;SDS011;8717;53.588;10.176;2023-04-01T06:10:11;1.20;;;1.10;;
17201;SDS011;8717;53.588;10.176;2023-04-01T06:12:41;1.40;;;1.03;;
17201;SDS011;8717;53.588;10.176;2023-04-01T06:15:20;0.80;;;0.70;;
17201;SDS011;8717;53.588;10.176;2023-04-01T06:17:55;1.20;;;0.97;;
17201;SDS011;8717;53.588;10.176;2023-04-01T06:20:53;0.87;;;0.80;;
17201;SDS011;8717;53.588;10.176;2023-04-01T06:23:31;0.63;;;0.63;;
17201;SDS011;8717;53.588;10.176;2023-04-01T06:26:17;1.53;;;1.20;;
17201;SDS011;8717;53.588;10.176;2023-04-01T06:31:49;0.77;;;0.63;;
17201;SDS011;8717;53.588;10.176;2023-04-01T06:34:40;0.70;;;0.67;;
17201;SDS011;8717;53.588;10.176;2023-04-01T06:37:43;0.70;;;0.60;;
17201;SDS011;8717;53.588;10.176;2023-04-01T06:40:35;6.83;;;1.13;;
17201;SDS011;8717;53.588;10.176;2023-04-01T06:43:15;2.50;;;0.80;;
17201;SDS011;8717;53.588;10.176;2023-04-01T06:46:20;0.83;;;0.80;;
17201;SDS011;8717;53.588;10.176;2023-04-01T06:49:21;46.10;;;4.73;;
17201;SDS011;8717;53.588;10.176;2023-04-01T06:52:19;30.53;;;3.00;;
17201;SDS011;8717;53.588;10.176;2023-04-01T06:55:16;1.07;;;0.80;;
17201;SDS011;8717;53.588;10.176;2023-04-01T06:58:13;14.27;;;1.47;;
17201;SDS011;8717;53.588;10.176;2023-04-01T07:00:48;9.13;;;1.43;;
17201;SDS011;8717;53.588;10.176;2023-04-01T07:03:19;37.20;;;2.57;;
17201;SDS011;8717;53.588;10.176;2023-04-01T07:05:49;16.40;;;1.93;;
17201;SDS011;8717;53.588;10.176;2023-04-01T07:08:17;11.93;;;1.60;;
17201;SDS011;8717;53.588;10.176;2023-04-01T07:10:50;9.43;;;0.90;;
17201;SDS011;8717;53.588;10.176;2023-04-01T07:13:39;3.77;;;1.03;;
17201;SDS011;8717;53.588;10.176;2023-04-01T07:16:15;1.30;;;0.70;;
17201;SDS011;8717;53.588;10.176;2023-04-01T07:18:46;1.47;;;0.80;;
17201;SDS011;8717;53.588;10.176;2023-04-01T07:21:21;4.13;;;1.40;;
17201;SDS011;8717;53.588;10.176;2023-04-01T07:23:52;2.37;;;0.83;;
17201;SDS011;8717;53.588;10.176;2023-04-01T07:26:35;1.43;;;0.60;;
17201;SDS011;8717;53.588;10.176;2023-04-01T07:29:14;0.90;;;0.80;;
17201;SDS011;8717;53.588;10.176;2023-04-01T07:31:55;1.10;;;0.63;;
17201;SDS011;8717;53.588;10.176;2023-04-01T07:34:35;0.50;;;0.50;;
17201;SDS011;8717;53.588;10.176;2023-04-01T07:37:12;1.13;;;1.03;;
17201;SDS011;8717;53.588;10.176;2023-04-01T07:39:45;1.80;;;0.80;;
17201;SDS011;8717;53.588;10.176;2023-04-01T07:42:36;1.77;;;0.67;;
17201;SDS011;8717;53.588;10.176;2023-04-01T07:45:14;1.47;;;0.60;;
17201;SDS011;8717;53.588;10.176;2023-04-01T07:47:53;1.13;;;0.60;;
17201;SDS011;8717;53.588;10.176;2023-04-01T07:50:28;0.83;;;0.70;;
17201;SDS011;8717;53.588;10.176;2023-04-01T07:52:59;0.70;;;0.67;;
17201;SDS011;8717;53.588;10.176;2023-04-01T07:55:34;1.07;;;0.60;;
17201;SDS011;8717;53.588;10.176;2023-04-01T07:58:09;0.97;;;0.77;;
17201;SDS011;8717;53.588;10.176;2023-04-01T08:00:44;0.60;;;0.60;;
17201;SDS011;8717;53.588;10.176;2023-04-01T08:03:33;0.87;;;0.70;;
17201;SDS011;8717;53.588;10.176;2023-04-01T08:06:11;0.80;;;0.60;;
17201;SDS011;8717;53.588;10.176;2023-04-01T08:08:48;1.50;;;0.60;;
17201;SDS011;8717;53.588;10.176;2023-04-01T08:11:46;1.20;;;0.70;;
17201;SDS011;8717;53.588;10.176;2023-04-01T08:15:02;0.97;;;0.77;;
17201;SDS011;8717;53.588;10.176;2023-04-01T08:17:54;1.10;;;1.00;;
17201;SDS011;8717;53.588;10.176;2023-04-01T08:20:37;1.30;;;0.70;;
17201;SDS011;8717;53.588;10.176;2023-04-01T08:23:11;0.83;;;0.70;;
17201;SDS011;8717;53.588;10.176;2023-04-01T08:25:42;1.00;;;0.77;;
17201;SDS011;8717;53.588;10.176;2023-04-01T08:28:15;0.93;;;0.63;;
17201;SDS011;8717;53.588;10.176;2023-04-01T08:30:47;0.87;;;0.53;;
17201;SDS011;8717;53.588;10.176;2023-04-01T08:33:19;0.70;;;0.70;;
17201;SDS011;8717;53.588;10.176;2023-04-01T08:35:54;0.60;;;0.60;;
17201;SDS011;8717;53.588;10.176;2023-04-01T08:38:27;0.93;;;0.60;;
17201;SDS011;8717;53.588;10.176;2023-04-01T08:40:58;0.83;;;0.70;;
17201;SDS011;8717;53.588;10.176;2023-04-01T08:44:11;0.60;;;0.50;;
17201;SDS011;8717;53.588;10.176;2023-04-01T08:46:58;0.80;;;0.50;;
17201;SDS011;8717;53.588;10.176;2023-04-01T08:53:11;0.60;;;0.60;;
17201;SDS011;8717;53.588;10.176;2023-04-01T08:55:51;0.67;;;0.60;;
17201;SDS011;8717;53.588;10.176;2023-04-01T08:58:52;0.97;;;0.70;;
17201;SDS011;8717;53.588;10.176;2023-04-01T09:05:03;0.73;;;0.60;;
17201;SDS011;8717;53.588;10.176;2023-04-01T09:07:50;0.53;;;0.53;;
17201;SDS011;8717;53.588;10.176;2023-04-01T09:10:32;1.33;;;0.60;;
17201;SDS011;8717;53.588;10.176;2023-04-01T09:13:34;0.80;;;0.70;;
17201;SDS011;8717;53.588;10.176;2023-04-01T09:16:22;1.67;;;0.70;;
17201;SDS011;8717;53.588;10.176;2023-04-01T09:19:07;0.70;;;0.70;;
17201;SDS011;8717;53.588;10.176;2023-04-01T09:21:46;1.07;;;0.80;;
17201;SDS011;8717;53.588;10.176;2023-04-01T09:24:30;1.30;;;0.70;;
17201;SDS011;8717;53.588;10.176;2023-04-01T09:27:20;0.70;;;0.70;;
17201;SDS011;8717;53.588;10.176;2023-04-01T09:30:00;0.60;;;0.60;;
17201;SDS011;8717;53.588;10.176;2023-04-01T09:35:49;1.30;;;1.00;;
17201;SDS011;8717;53.588;10.176;2023-04-01T09:38:29;1.47;;;0.70;;
17201;SDS011;8717;53.588;10.176;2023-04-01T09:41:06;0.77;;;0.60;;
17201;SDS011;8717;53.588;10.176;2023-04-01T09:44:03;1.17;;;0.50;;
17201;SDS011;8717;53.588;10.176;2023-04-01T09:46:50;1.70;;;0.50;;
17201;SDS011;8717;53.588;10.176;2023-04-01T09:49:35;0.40;;;0.40;;
17201;SDS011;8717;53.588;10.176;2023-04-01T09:55:28;1.00;;;0.60;;
17201;SDS011;8717;53.588;10.176;2023-04-01T09:58:36;0.83;;;0.70;;
17201;SDS011;8717;53.588;10.176;2023-04-01T10:01:59;1.73;;;0.80;;
17201;SDS011;8717;53.588;10.176;2023-04-01T10:05:04;0.60;;;0.50;;
17201;SDS011;8717;53.588;10.176;2023-04-01T10:08:05;1.43;;;0.60;;
17201;SDS011;8717;53.588;10.176;2023-04-01T10:11:03;0.80;;;0.50;;
17201;SDS011;8717;53.588;10.176;2023-04-01T10:20:02;0.40;;;0.40;;
17201;SDS011;8717;53.588;10.176;2023-04-01T10:23:02;0.60;;;0.40;;
17201;SDS011;8717;53.588;10.176;2023-04-01T10:25:57;1.00;;;0.50;;
17201;SDS011;8717;53.588;10.176;2023-04-01T10:32:05;0.77;;;0.60;;
17201;SDS011;8717;53.588;10.176;2023-04-01T10:35:09;0.60;;;0.50;;
17201;SDS011;8717;53.588;10.176;2023-04-01T10:40:50;0.43;;;0.43;;
17201;SDS011;8717;53.588;10.176;2023-04-01T10:44:18;0.80;;;0.50;;
17201;SDS011;8717;53.588;10.176;2023-04-01T10:50:22;0.77;;;0.60;;
17201;SDS011;8717;53.588;10.176;2023-04-01T10:53:01;0.40;;;0.40;;
17201;SDS011;8717;53.588;10.176;2023-04-01T10:56:38;0.47;;;0.47;;
17201;SDS011;8717;53.588;10.176;2023-04-01T10:59:48;0.80;;;0.50;;
17201;SDS011;8717;53.588;10.176;2023-04-01T11:03:18;0.67;;;0.60;;
17201;SDS011;8717;53.588;10.176;2023-04-01T11:06:34;1.37;;;0.70;;
17201;SDS011;8717;53.588;10.176;2023-04-01T11:12:56;0.70;;;0.70;;
17201;SDS011;8717;53.588;10.176;2023-04-01T11:15:56;1.07;;;0.70;;
17201;SDS011;8717;53.588;10.176;2023-04-01T11:18:51;0.70;;;0.70;;
17201;SDS011;8717;53.588;10.176;2023-04-01T11:21:50;1.27;;;0.80;;
17201;SDS011;8717;53.588;10.176;2023-04-01T11:27:56;1.30;;;0.90;;
17201;SDS011;8717;53.588;10.176;2023-04-01T11:30:53;1.40;;;1.10;;
17201;SDS011;8717;53.588;10.176;2023-04-01T11:33:34;1.13;;;1.03;;
17201;SDS011;8717;53.588;10.176;2023-04-01T11:36:06;1.73;;;1.60;;
17201;SDS011;8717;53.588;10.176;2023-04-01T11:38:51;1.40;;;1.30;;
17201;SDS011;8717;53.588;10.176;2023-04-01T11:42:12;1.57;;;1.47;;
17201;SDS011;8717;53.588;10.176;2023-04-01T11:45:13;3.30;;;1.80;;
17201;SDS011;8717;53.588;10.176;2023-04-01T11:47:55;2.50;;;2.03;;
17201;SDS011;8717;53.588;10.176;2023-04-01T11:50:35;3.40;;;2.03;;
17201;SDS011;8717;53.588;10.176;2023-04-01T11:53:13;2.87;;;2.27;;
17201;SDS011;8717;53.588;10.176;2023-04-01T11:56:02;3.87;;;2.20;;
17201;SDS011;8717;53.588;10.176;2023-04-01T11:58:49;3.53;;;2.23;;
17201;SDS011;8717;53.588;10.176;2023-04-01T12:01:28;2.97;;;2.17;;
17201;SDS011;8717;53.588;10.176;2023-04-01T12:04:17;3.07;;;2.30;;
17201;SDS011;8717;53.588;10.176;2023-04-01T12:06:57;3.60;;;2.43;;
17201;SDS011;8717;53.588;10.176;2023-04-01T12:09:34;2.97;;;2.00;;
17201;SDS011;8717;53.588;10.176;2023-04-01T12:12:13;3.53;;;2.60;;
17201;SDS011;8717;53.588;10.176;2023-04-01T12:14:49;6.20;;;2.93;;
17201;SDS011;8717;53.588;10.176;2023-04-01T12:17:28;2.20;;;2.00;;
17201;SDS011;8717;53.588;10.176;2023-04-01T12:20:11;3.80;;;2.67;;
17201;SDS011;8717;53.588;10.176;2023-04-01T12:22:53;3.67;;;2.80;;
17201;SDS011;8717;53.588;10.176;2023-04-01T12:25:33;3.37;;;2.50;;
17201;SDS011;8717;53.588;10.176;2023-04-01T12:28:14;4.43;;;2.80;;
17201;SDS011;8717;53.588;10.176;2023-04-01T12:30:53;4.03;;;2.77;;
17201;SDS011;8717;53.588;10.176;2023-04-01T12:33:46;4.10;;;2.77;;
17201;SDS011;8717;53.588;10.176;2023-04-01T12:36:23;4.73;;;3.20;;
17201;SDS011;8717;53.588;10.176;2023-04-01T12:42:36;2.93;;;2.37;;
17201;SDS011;8717;53.588;10.176;2023-04-01T12:48:17;3.33;;;2.70;;
17201;SDS011;8717;53.588;10.176;2023-04-01T12:51:19;3.67;;;2.53;;
17201;SDS011;8717;53.588;10.176;2023-04-01T12:54:08;5.07;;;2.80;;
17201;SDS011;8717;53.588;10.176;2023-04-01T12:56:53;2.83;;;2.30;;
17201;SDS011;8717;53.588;10.176;2023-04-01T12:59:34;5.63;;;2.60;;
17201;SDS011;8717;53.588;10.176;2023-04-01T13:02:18;3.60;;;2.30;;
17201;SDS011;8717;53.588;10.176;2023-04-01T13:05:01;4.37;;;2.50;;
17201;SDS011;8717;53.588;10.176;2023-04-01T13:07:48;5.73;;;2.50;;
17201;SDS011;8717;53.588;10.176;2023-04-01T13:10:27;4.57;;;2.47;;
17201;SDS011;8717;53.588;10.176;2023-04-01T13:13:20;3.10;;;2.70;;
17201;SDS011;8717;53.588;10.176;2023-04-01T13:16:01;4.53;;;2.57;;
17201;SDS011;8717;53.588;10.176;2023-04-01T13:18:35;5.13;;;2.40;;
17201;SDS011;8717;53.588;10.176;2023-04-01T13:21:12;4.90;;;2.63;;
17201;SDS011;8717;53.588;10.176;2023-04-01T13:23:48;4.27;;;2.57;;
17201;SDS011;8717;53.588;10.176;2023-04-01T13:26:22;3.53;;;2.47;;
17201;SDS011;8717;53.588;10.176;2023-04-01T13:28:58;7.70;;;2.90;;
17201;SDS011;8717;53.588;10.176;2023-04-01T13:31:39;3.37;;;2.40;;
17201;SDS011;8717;53.588;10.176;2023-04-01T13:34:30;3.17;;;2.17;;
17201;SDS011;8717;53.588;10.176;2023-04-01T13:39:59;3.43;;;2.50;;
17201;SDS011;8717;53.588;10.176;2023-04-01T13:42:43;2.97;;;2.33;;
17201;SDS011;8717;53.588;10.176;2023-04-01T13:45:16;5.67;;;2.80;;
17201;SDS011;8717;53.588;10.176;2023-04-01T13:47:58;6.17;;;3.07;;
17201;SDS011;8717;53.588;10.176;2023-04-01T13:51:03;4.40;;;3.03;;
17201;SDS011;8717;53.588;10.176;2023-04-01T13:56:53;5.70;;;3.23;;
17201;SDS011;8717;53.588;10.176;2023-04-01T13:59:37;4.17;;;2.87;;
17201;SDS011;8717;53.588;10.176;2023-04-01T14:02:20;4.10;;;2.90;;
17201;SDS011;8717;53.588;10.176;2023-04-01T14:05:02;4.77;;;2.80;;
17201;SDS011;8717;53.588;10.176;2023-04-01T14:07:56;4.13;;;3.20;;
17201;SDS011;8717;53.588;10.176;2023-04-01T14:10:36;5.53;;;2.93;;
17201;SDS011;8717;53.588;10.176;2023-04-01T14:13:12;5.33;;;3.23;;
17201;SDS011;8717;53.588;10.176;2023-04-01T14:15:50;3.97;;;3.00;;
17201;SDS011;8717;53.588;10.176;2023-04-01T14:18:51;5.20;;;3.80;;
17201;SDS011;8717;53.588;10.176;2023-04-01T14:21:32;5.57;;;3.03;;
17201;SDS011;8717;53.588;10.176;2023-04-01T14:24:07;4.90;;;3.30;;
17201;SDS011;8717;53.588;10.176;2023-04-01T14:26:53;4.40;;;3.10;;
17201;SDS011;8717;53.588;10.176;2023-04-01T14:29:40;4.60;;;2.77;;
17201;SDS011;8717;53.588;10.176;2023-04-01T14:32:14;5.60;;;3.00;;
17201;SDS011;8717;53.588;10.176;2023-04-01T14:34:54;6.80;;;3.33;;
17201;SDS011;8717;53.588;10.176;2023-04-01T14:37:37;5.27;;;3.27;;
17201;SDS011;8717;53.588;10.176;2023-04-01T14:40:21;5.30;;;3.20;;
17201;SDS011;8717;53.588;10.176;2023-04-01T14:42:59;5.37;;;3.17;;
17201;SDS011;8717;53.588;10.176;2023-04-01T14:45:49;5.30;;;2.87;;
17201;SDS011;8717;53.588;10.176;2023-04-01T14:48:32;4.53;;;2.70;;
17201;SDS011;8717;53.588;10.176;2023-04-01T14:51:08;4.33;;;2.57;;
17201;SDS011;8717;53.588;10.176;2023-04-01T14:53:41;5.87;;;3.20;;
17201;SDS011;8717;53.588;10.176;2023-04-01T14:59:04;7.93;;;4.10;;
17201;SDS011;8717;53.588;10.176;2023-04-01T15:01:37;5.23;;;3.60;;
17201;SDS011;8717;53.588;10.176;2023-04-01T15:04:21;8.07;;;3.43;;
17201;SDS011;8717;53.588;10.176;2023-04-01T15:07:04;7.37;;;3.40;;
17201;SDS011;8717;53.588;10.176;2023-04-01T15:09:52;5.73;;;3.43;;
17201;SDS011;8717;53.588;10.176;2023-04-01T15:12:26;7.33;;;3.90;;
17201;SDS011;8717;53.588;10.176;2023-04-01T15:15:03;6.90;;;3.70;;
17201;SDS011;8717;53.588;10.176;2023-04-01T15:17:53;4.97;;;3.77;;
17201;SDS011;8717;53.588;10.176;2023-04-01T15:20:32;6.90;;;4.13;;
17201;SDS011;8717;53.588;10.176;2023-04-01T15:23:19;5.80;;;3.90;;
17201;SDS011;8717;53.588;10.176;2023-04-01T15:26:03;7.07;;;3.80;;
17201;SDS011;8717;53.588;10.176;2023-04-01T15:28:39;8.60;;;3.40;;
17201;SDS011;8717;53.588;10.176;2023-04-01T15:31:11;5.30;;;3.43;;
17201;SDS011;8717;53.588;10.176;2023-04-01T15:33:51;6.73;;;3.50;;
17201;SDS011;8717;53.588;10.176;2023-04-01T15:36:37;7.17;;;3.90;;
17201;SDS011;8717;53.588;10.176;2023-04-01T15:39:11;6.47;;;3.73;;
17201;SDS011;8717;53.588;10.176;2023-04-01T15:41:43;9.30;;;3.67;;
17201;SDS011;8717;53.588;10.176;2023-04-01T15:44:27;4.70;;;3.50;;
17201;SDS011;8717;53.588;10.176;2023-04-01T15:47:33;7.80;;;3.80;;
17201;SDS011;8717;53.588;10.176;2023-04-01T15:50:16;6.93;;;4.00;;
17201;SDS011;8717;53.588;10.176;2023-04-01T15:53:12;7.43;;;3.90;;
17201;SDS011;8717;53.588;10.176;2023-04-01T15:55:47;9.67;;;6.57;;
17201;SDS011;8717;53.588;10.176;2023-04-01T15:58:25;11.13;;;6.60;;
17201;SDS011;8717;53.588;10.176;2023-04-01T16:01:04;12.30;;;7.50;;
17201;SDS011;8717;53.588;10.176;2023-04-01T16:03:46;10.17;;;7.00;;
17201;SDS011;8717;53.588;10.176;2023-04-01T16:06:27;10.87;;;5.20;;
17201;SDS011;8717;53.588;10.176;2023-04-01T16:09:06;19.53;;;11.37;;
17201;SDS011;8717;53.588;10.176;2023-04-01T16:11:50;10.67;;;5.80;;
17201;SDS011;8717;53.588;10.176;2023-04-01T16:14:28;8.57;;;5.83;;
17201;SDS011;8717;53.588;10.176;2023-04-01T16:17:11;7.40;;;4.70;;
17201;SDS011;8717;53.588;10.176;2023-04-01T16:19:53;12.90;;;6.20;;
17201;SDS011;8717;53.588;10.176;2023-04-01T16:22:28;5.27;;;4.13;;
17201;SDS011;8717;53.588;10.176;2023-04-01T16:25:07;9.20;;;3.90;;
17201;SDS011;8717;53.588;10.176;2023-04-01T16:27:46;7.17;;;3.80;;
17201;SDS011;8717;53.588;10.176;2023-04-01T16:30:23;9.67;;;4.30;;
17201;SDS011;8717;53.588;10.176;2023-04-01T16:33:01;7.20;;;3.83;;
17201;SDS011;8717;53.588;10.176;2023-04-01T16:35:34;7.60;;;4.00;;
17201;SDS011;8717;53.588;10.176;2023-04-01T16:38:11;8.17;;;4.00;;
17201;SDS011;8717;53.588;10.176;2023-04-01T16:40:46;10.93;;;4.63;;
17201;SDS011;8717;53.588;10.176;2023-04-01T16:43:25;8.23;;;4.63;;
17201;SDS011;8717;53.588;10.176;2023-04-01T16:46:13;6.27;;;3.70;;